Details From LFOE - FAUVILLE
To LFRK - Caen Carpiquet
Flight Number -
Tags generated
Created
Modified
Stats Distance 69 nm / 127 km
Max Altitude 4,400 ft / 1,341 m
Waypoints 3
Social Downloads 4
Likes 0
Share VATSIM

Download

Looking for another format? Having issues loading an existing format? Contact us
Advertisement - Login to hide

Notes

Basic altitude profile: - Ascent Rate: 400ft/min - Ascent Speed: 75kts - Cruise Altitude: 50ft - Cruise Speed: 95kts - Descent Rate: 400ft/min - Descent Speed: 75kts Options: - Use NATs: yes - Use PACOTS: yes - Use low airways: no - Use high airways: no

Route

LFOE 4900N0000E LFRK

ID Type Via Altitude Latitude Longitude Leg Dist Tot Dist Heading (true) Name
O LFOE APT - 0 ft / 0 m 49.02867˚ 1.21987˚ - 0 nm - FAUVILLE
4900N0000E LATLON - 4,400 ft / 1,341 m 49.00000˚ 0.00000˚ 48 nm 48 nm 268° / 267° -
O LFRK APT - 0 ft / 0 m 49.17512˚ -0.45194˚ 20 nm 68 nm 301° / 300° Caen Carpiquet

Altitude Profile

Advertisement - Login to hide

LFOE

Details ICAO LFOE
Name FAUVILLE
Region France
Timezone Europe/Paris (UTC+2.0)
Stats Elevation 464 ft / 141 m (AMSL)
Location 49.028669° 1.219866°
Runways 1
Magnetic Variation 0.286° E

METAR

LFOE 251700Z AUTO VRB03KT 6000 -RA FEW015/// SCT060/// OVC090/// ///CB 18/16 Q1017 TEMPO VRB20G30KT 2000 TSRAGS

Decode

TAF

TAF TAF LFOE 251400Z 2515/2615 01005KT CAVOK TEMPO 2515/2523 VRB10G20KT 3000 SHRA BKN030TCU PROB40 TEMPO 2515/2521 VRB20G30KT 2000 TSRAGS SCT010 BKN025CB BECMG 2602/2604 3000 BR BKN003 TEMPO 2604/2607 0200 FG VV/// BECMG 2607/2609 8000 NSW SCT025 TEMPO 2614/2615 VRB10G20KT 3000 SHRA BKN030TCU

Decode

Departure Runways

ID Width Length Bearing (true) Bearing (mag) Surface Threshold Offset Overrun Length
04 148 ft / 45 m 9,836 ft / 2,998 m 39.78° 39.49° Asphalt 0 ft / 0 m 0 ft / 0 m
22 148 ft / 45 m 9,836 ft / 2,998 m 219.80° 219.51° Asphalt 0 ft / 0 m 0 ft / 0 m

LFRK

Details ICAO LFRK (CFR)
Name Caen Carpiquet
Region France
Timezone Europe/Paris (UTC+2.0)
Stats Elevation 256 ft / 78 m (AMSL)
Location 49.175122° -0.451941°
Runways 2
Magnetic Variation 0.259° W

METAR

LFRK 251700Z AUTO 36007KT 6000 FEW008/// SCT064/// BKN098/// ///CB 15/13 Q1017 TEMPO 4000 TSRA BKN010

Decode

TAF

Not found

Destination Runways

ID Width Length Bearing (true) Bearing (mag) Surface Threshold Offset Overrun Length
06 98 ft / 30 m 3,880 ft / 1,183 m 51.68° 51.94° Asphalt 0 ft / 0 m 0 ft / 0 m
13 148 ft / 45 m 6,215 ft / 1,894 m 125.34° 125.60° Asphalt 984 ft / 300 m 0 ft / 0 m
24 98 ft / 30 m 3,880 ft / 1,183 m 231.69° 231.95° Asphalt 0 ft / 0 m 0 ft / 0 m
31 148 ft / 45 m 6,215 ft / 1,894 m 305.36° 305.62° Asphalt 0 ft / 0 m 0 ft / 0 m

Approach Navaids

Runway Type Ident Frequency Range Bearing (true) Bearing (mag) Slope Elevation
31 Localiser CN 110.95 MHz 18 nm / 33 km 305.34° 305.60° - 231 ft / 70 m (AMSL)
31 Glidescope CN 110.95 MHz 10 nm / 19 km 305.35° 305.61° 3.00° 233 ft / 71 m (AMSL)
31 DME CN 110.95 MHz 18 nm / 33 km - - - 233 ft / 71 m (AMSL)

Popular Alternatives